Time;durP1;ratioP1;P1;durP2;ratioP2;P2;SDS_P1;SDS_P2;PMS_P1;PMS_P2;Temp;Humidity;BMP_temperature;BMP_pressure;BME280_temperature;BME280_humidity;BME280_pressure;Samples;Min_cycle;Max_cycle;Signal;HPM_P1;HPM_P2
2021/08/21 00:02:20;;;;;;;5.37;3.80;;;;;;;15.16;80.98;96827.09;2593514;36;21219;-75
2021/08/21 00:04:51;;;;;;;16.13;3.57;;;;;;;15.25;80.51;96823.69;2594259;39;20556;-74
2021/08/21 00:07:21;;;;;;;6.90;3.87;;;;;;;15.41;80.33;96828.50;2594111;36;20430;-74
2021/08/21 00:09:51;;;;;;;12.10;4.43;;;;;;;15.51;80.13;96834.66;2593750;54;20466;-73
2021/08/21 00:12:21;;;;;;;7.30;4.07;;;;;;;15.60;79.33;96828.63;2594096;36;20446;-74
2021/08/21 00:14:53;;;;;;;7.57;4.43;;;;;;;15.61;79.32;96822.34;2594138;54;20510;-75
2021/08/21 00:17:23;;;;;;;8.90;3.80;;;;;;;15.56;79.87;96818.44;2559367;54;2004244;-74
2021/08/21 00:19:53;;;;;;;4.53;3.87;;;;;;;15.26;81.07;96821.88;2594998;36;20415;-72
2021/08/21 00:22:22;;;;;;;4.47;3.47;;;;;;;14.87;81.56;96830.34;2595026;54;20959;-74
2021/08/21 00:24:52;;;;;;;5.60;3.97;;;;;;;14.92;81.88;96822.06;2595201;39;20767;-74
2021/08/21 00:27:23;;;;;;;5.73;3.43;;;;;;;14.63;82.48;96818.22;2594175;36;20426;-73
2021/08/21 00:29:58;;;;;;;9.37;3.90;;;;;;;14.87;81.81;96816.31;2596574;36;20753;-73
2021/08/21 00:32:28;;;;;;;21.00;4.63;;;;;;;15.13;80.79;96817.63;2595268;54;20414;-73
2021/08/21 00:34:58;;;;;;;13.93;4.30;;;;;;;15.29;80.66;96825.09;2594666;36;20475;-75
2021/08/21 00:37:28;;;;;;;9.00;4.67;;;;;;;15.34;80.44;96827.34;2595201;31;20835;-74
2021/08/21 00:39:58;;;;;;;8.63;3.50;;;;;;;15.30;80.61;96820.66;2595383;36;20572;-74
2021/08/21 00:42:28;;;;;;;7.17;3.80;;;;;;;15.25;80.63;96815.78;2595360;54;20431;-73
2021/08/21 00:45:01;;;;;;;10.60;4.20;;;;;;;15.10;80.79;96817.88;2594769;36;20423;-73
2021/08/21 00:47:31;;;;;;;7.93;4.47;;;;;;;14.85;82.05;96820.88;2595532;54;21099;-73
2021/08/21 00:50:02;;;;;;;9.07;3.83;;;;;;;14.98;81.98;96824.19;2595304;36;21045;-77
2021/08/21 00:52:34;;;;;;;7.00;4.60;;;;;;;15.14;80.88;96821.09;2594638;54;20459;-73
2021/08/21 00:55:05;;;;;;;8.83;3.83;;;;;;;15.19;80.90;96813.63;2593872;36;20426;-73
2021/08/21 00:57:35;;;;;;;7.97;4.23;;;;;;;15.25;80.63;96809.63;2594107;54;20426;-73
2021/08/21 01:00:10;;;;;;;12.23;5.07;;;;;;;15.11;80.73;96809.03;2593761;36;20419;-73
2021/08/21 01:02:41;;;;;;;4.50;3.70;;;;;;;15.08;81.07;96811.91;2595529;39;20763;-73
2021/08/21 01:05:14;;;;;;;7.33;4.00;;;;;;;15.15;80.43;96805.16;2594216;36;20940;-73
2021/08/21 01:07:44;;;;;;;13.40;4.90;;;;;;;15.18;80.68;96802.25;2594554;54;20445;-73
2021/08/21 01:10:16;;;;;;;7.53;3.87;;;;;;;15.23;80.29;96799.25;2593582;36;20403;-73
2021/08/21 01:12:49;;;;;;;5.67;4.20;;;;;;;15.14;80.78;96803.47;2596363;54;20963;-75
2021/08/21 01:15:24;;;;;;;6.63;3.83;;;;;;;15.07;80.91;96804.94;2594502;31;21045;-77
2021/08/21 01:17:55;;;;;;;5.27;4.00;;;;;;;14.95;82.16;96809.44;2594827;39;21214;-75
2021/08/21 01:20:29;;;;;;;6.57;4.17;;;;;;;14.77;82.51;96808.34;2594090;36;20422;-76
2021/08/21 01:23:00;;;;;;;5.90;4.00;;;;;;;14.56;83.22;96808.25;2594801;54;20947;-75
2021/08/21 01:25:31;;;;;;;8.00;4.70;;;;;;;14.62;83.39;96813.06;2596126;36;20418;-76
2021/08/21 01:28:05;;;;;;;5.80;4.20;;;;;;;14.68;82.54;96812.59;2596875;54;20431;-75
2021/08/21 01:30:34;;;;;;;12.93;4.13;;;;;;;14.72;82.34;96811.38;2594502;36;20911;-75
2021/08/21 01:33:04;;;;;;;11.33;4.33;;;;;;;14.65;82.37;96809.34;2595933;54;20530;-75
2021/08/21 01:35:34;;;;;;;10.13;4.20;;;;;;;14.59;81.91;96811.50;2597038;36;20425;-75
2021/08/21 01:38:04;;;;;;;6.50;3.90;;;;;;;14.52;81.99;96807.66;2598353;54;20411;-75
2021/08/21 01:40:34;;;;;;;6.27;4.00;;;;;;;14.53;81.99;96800.63;2596515;36;20760;-75
2021/08/21 01:43:07;;;;;;;10.33;4.10;;;;;;;14.47;81.45;96790.59;2595702;54;20462;-74
2021/08/21 01:45:36;;;;;;;7.87;4.17;;;;;;;14.46;81.76;96794.16;2596839;36;20763;-74
2021/08/21 01:48:07;;;;;;;5.40;3.90;;;;;;;14.37;81.95;96804.50;2595738;54;20937;-75
2021/08/21 01:50:37;;;;;;;5.67;4.03;;;;;;;14.36;81.83;96799.34;2597184;31;20419;-75
2021/08/21 01:53:11;;;;;;;7.57;3.87;;;;;;;14.38;82.54;96806.16;2599130;47;20414;-76
2021/08/21 01:55:42;;;;;;;9.07;4.20;;;;;;;14.34;82.54;96799.47;2596676;36;20422;-75
2021/08/21 01:58:20;;;;;;;8.80;3.90;;;;;;;14.33;82.02;96805.72;2596421;54;20946;-74
2021/08/21 02:00:50;;;;;;;12.07;4.40;;;;;;;14.36;82.13;96800.16;2596156;36;20449;-76
2021/08/21 02:03:20;;;;;;;7.03;3.73;;;;;;;14.33;82.12;96800.44;2595739;54;20414;-74
2021/08/21 02:05:52;;;;;;;5.00;3.87;;;;;;;14.32;82.47;96805.81;2596637;36;20446;-74
2021/08/21 02:08:22;;;;;;;9.10;4.20;;;;;;;14.30;82.01;96787.50;2596011;54;20427;-76
2021/08/21 02:10:52;;;;;;;6.27;4.57;;;;;;;14.19;82.15;96792.78;2596587;31;20844;-76
2021/08/21 02:13:25;;;;;;;9.70;4.83;;;;;;;14.15;82.30;96786.97;2596396;39;20879;-75
2021/08/21 02:15:55;;;;;;;12.90;4.27;;;;;;;14.09;82.68;96792.69;2596141;36;20415;-75
2021/08/21 02:18:24;;;;;;;7.60;4.87;;;;;;;14.00;83.03;96789.00;2596663;39;20773;-74
2021/08/21 02:20:54;;;;;;;5.63;4.10;;;;;;;14.10;82.31;96790.91;2595703;36;20439;-74
2021/08/21 02:23:24;;;;;;;6.53;4.27;;;;;;;13.98;82.90;96796.19;2596040;54;21259;-74
2021/08/21 02:25:58;;;;;;;7.20;4.77;;;;;;;13.86;83.41;96786.63;2594754;36;20415;-74
2021/08/21 02:28:30;;;;;;;11.87;4.80;;;;;;;13.94;83.54;96786.88;2596375;54;20993;-75
2021/08/21 02:31:00;;;;;;;9.07;4.90;;;;;;;13.93;83.69;96781.72;2595817;36;20959;-75
2021/08/21 02:33:30;;;;;;;8.83;4.40;;;;;;;13.89;83.98;96781.13;2595514;39;20781;-75
2021/08/21 02:36:00;;;;;;;6.10;4.40;;;;;;;13.89;83.11;96781.13;2595407;36;20431;-75
2021/08/21 02:38:30;;;;;;;7.13;3.40;;;;;;;13.89;83.58;96775.03;2596419;39;20820;-74
2021/08/21 02:41:01;;;;;;;8.80;4.37;;;;;;;13.70;84.41;96780.88;2597000;36;20508;-75
2021/08/21 02:43:34;;;;;;;6.70;3.87;;;;;;;13.56;84.86;96784.59;2595294;54;20981;-74
2021/08/21 02:46:04;;;;;;;8.13;4.77;;;;;;;13.63;83.69;96786.63;2595512;31;20788;-74
2021/08/21 02:48:34;;;;;;;7.67;4.13;;;;;;;13.65;83.18;96784.72;2595625;54;20398;-74
2021/08/21 02:51:04;;;;;;;6.30;3.50;;;;;;;13.65;83.12;96783.91;2595435;36;20422;-73
2021/08/21 02:53:33;;;;;;;10.23;3.90;;;;;;;13.68;82.56;96785.44;2596109;39;20552;-73
2021/08/21 02:56:03;;;;;;;9.40;3.83;;;;;;;13.68;82.98;96780.19;2595070;36;20414;-71
2021/08/21 02:58:36;;;;;;;4.70;3.40;;;;;;;13.69;83.08;96777.44;2596112;54;20982;-77
2021/08/21 03:01:05;;;;;;;8.73;4.23;;;;;;;13.65;83.32;96779.47;2594401;36;20415;-74
2021/08/21 03:03:35;;;;;;;10.20;4.60;;;;;;;13.59;83.04;96773.84;2595288;54;20895;-72
2021/08/21 03:06:05;;;;;;;8.37;4.57;;;;;;;13.42;83.87;96773.34;2595363;36;20410;-72
2021/08/21 03:08:35;;;;;;;8.20;4.20;;;;;;;13.21;84.58;96770.56;2595473;54;20423;-74
2021/08/21 03:11:05;;;;;;;10.93;3.90;;;;;;;13.28;84.78;96776.19;2595341;36;20505;-74
2021/08/21 03:13:37;;;;;;;8.53;4.47;;;;;;;13.32;84.22;96776.81;2595113;54;20458;-74
2021/08/21 03:16:07;;;;;;;9.10;3.80;;;;;;;12.98;85.13;96766.22;2594954;36;20458;-74
2021/08/21 03:18:37;;;;;;;11.03;4.47;;;;;;;13.25;83.81;96771.19;2594948;54;20459;-74
2021/08/21 03:21:07;;;;;;;7.77;3.83;;;;;;;13.21;83.56;96770.56;2595196;36;20514;-74
2021/08/21 03:23:38;;;;;;;7.80;4.13;;;;;;;13.27;83.97;96769.28;2595885;39;20785;-74
2021/08/21 03:26:08;;;;;;;11.03;4.37;;;;;;;13.27;83.32;96769.28;2595214;36;20521;-74
2021/08/21 03:28:41;;;;;;;6.70;3.97;;;;;;;13.20;83.87;96768.06;2595212;54;20442;-73
2021/08/21 03:31:11;;;;;;;10.70;4.50;;;;;;;13.26;83.33;96764.94;2596005;36;20760;-73
2021/08/21 03:33:41;;;;;;;8.30;4.40;;;;;;;13.21;83.84;96765.31;2594099;54;20465;-74
2021/08/21 03:36:11;;;;;;;4.80;3.63;;;;;;;13.02;84.50;96771.13;2595042;36;21213;-73
2021/08/21 03:38:40;;;;;;;13.83;4.57;;;;;;;13.14;84.46;96769.34;2594735;54;20929;-73
2021/08/21 03:41:10;;;;;;;7.43;4.30;;;;;;;13.21;83.95;96774.97;2594678;36;20949;-73
2021/08/21 03:43:43;;;;;;;5.63;4.00;;;;;;;13.18;83.72;96768.16;2594727;54;20430;-73
2021/08/21 03:46:12;;;;;;;4.80;4.00;;;;;;;13.27;83.00;96769.28;2595950;36;20423;-73
2021/08/21 03:48:42;;;;;;;6.97;3.77;;;;;;;13.30;82.66;96768.22;2594227;54;20418;-73
2021/08/21 03:51:12;;;;;;;12.20;4.40;;;;;;;13.04;82.90;96771.03;2594103;36;20441;-73
2021/08/21 03:53:42;;;;;;;12.57;4.50;;;;;;;13.05;83.34;96767.41;2594225;54;20937;-75
2021/08/21 03:56:12;;;;;;;8.33;4.67;;;;;;;13.09;83.70;96768.03;2594324;36;20732;-75
2021/08/21 04:02:11;;;;;;;8.40;5.20;;;;;;;13.09;83.92;96770.66;2595298;36;20460;-76
2021/08/21 04:04:41;;;;;;;12.00;4.40;;;;;;;13.14;84.50;96772.00;2596359;47;20435;-73
2021/08/21 04:07:11;;;;;;;7.77;5.00;;;;;;;13.25;83.92;96768.56;2595483;36;20786;-74
2021/08/21 04:09:41;;;;;;;6.87;4.27;;;;;;;13.23;83.75;96773.91;2595621;54;20916;-74
2021/08/21 04:12:14;;;;;;;12.10;5.00;;;;;;;13.21;84.29;96760.06;2595210;36;20429;-73
2021/08/21 04:14:47;;;;;;;9.83;5.40;;;;;;;13.32;84.23;96771.56;2596462;54;20422;-74
2021/08/21 04:17:30;;;;;;;7.10;5.00;;;;;;;13.19;84.27;96766.38;2559653;54;2004068;-74
2021/08/21 04:20:03;;;;;;;8.27;5.03;;;;;;;13.16;84.77;96772.72;2596955;36;20429;-74
2021/08/21 04:22:36;;;;;;;7.90;4.30;;;;;;;13.18;83.91;96770.78;2595880;54;20521;-73
2021/08/21 04:25:07;;;;;;;6.63;4.57;;;;;;;13.11;83.78;96766.94;2594954;31;20876;-73
2021/08/21 04:27:36;;;;;;;11.50;5.37;;;;;;;13.19;83.84;96783.00;2594451;54;20457;-73
2021/08/21 04:30:08;;;;;;;9.70;4.97;;;;;;;13.21;83.61;96775.84;2594502;36;20406;-72
2021/08/21 04:32:40;;;;;;;6.90;4.77;;;;;;;13.30;84.05;96784.81;2593675;54;20399;-73
2021/08/21 04:35:10;;;;;;;5.73;4.10;;;;;;;13.34;83.70;96774.91;2594418;36;20763;-73
2021/08/21 04:37:40;;;;;;;10.23;4.80;;;;;;;13.36;83.24;96770.38;2594109;54;20470;-72
2021/08/21 04:40:11;;;;;;;12.13;5.17;;;;;;;13.35;83.26;96771.31;2594183;36;20894;-74
2021/08/21 04:42:41;;;;;;;11.60;5.07;;;;;;;13.37;83.68;96782.59;2594678;54;20907;-73
2021/08/21 04:45:12;;;;;;;7.60;4.40;;;;;;;13.34;83.38;96767.03;2593167;36;21245;-73
2021/08/21 04:47:44;;;;;;;7.00;4.53;;;;;;;13.47;83.46;96773.00;2594369;54;20409;-73
2021/08/21 04:50:15;;;;;;;15.03;4.70;;;;;;;13.29;84.83;96782.28;2593590;36;21049;-73
2021/08/21 04:52:44;;;;;;;5.40;3.83;;;;;;;13.32;81.96;96787.34;2593828;54;20955;-73
2021/08/21 04:55:14;;;;;;;8.83;4.43;;;;;;;13.39;81.61;96786.75;2594457;36;20774;-75
2021/08/21 04:57:44;;;;;;;7.97;4.00;;;;;;;13.16;81.69;96779.75;2594719;54;20442;-73
2021/08/21 05:00:15;;;;;;;8.40;4.47;;;;;;;13.24;81.64;96794.00;2595182;36;20418;-74
2021/08/21 05:02:47;;;;;;;8.10;4.63;;;;;;;12.98;83.45;96789.88;2594460;47;20432;-73
2021/08/21 05:05:17;;;;;;;5.80;3.70;;;;;;;13.11;83.50;96785.34;2594641;36;20458;-76
2021/08/21 05:07:47;;;;;;;7.63;4.33;;;;;;;13.55;82.95;96786.41;2593996;54;21328;-73
2021/08/21 05:10:18;;;;;;;10.93;4.53;;;;;;;13.84;81.71;96788.56;2595342;36;20426;-73
2021/08/21 05:12:48;;;;;;;12.63;4.63;;;;;;;13.93;81.23;96790.44;2594699;54;20426;-74
2021/08/21 05:15:18;;;;;;;6.47;4.73;;;;;;;13.82;80.22;96793.09;2594746;36;21016;-73
2021/08/21 05:17:52;;;;;;;9.50;3.43;;;;;;;13.68;81.76;96793.34;2594782;54;20423;-74
2021/08/21 05:20:29;;;;;;;9.53;3.77;;;;;;;13.63;82.08;96788.44;2594057;36;20444;-73
2021/08/21 05:23:07;;;;;;;8.27;3.50;;;;;;;14.08;81.69;96793.66;2594208;39;20732;-73
2021/08/21 05:25:42;;;;;;;11.00;4.17;;;;;;;13.97;82.88;96789.25;2594237;36;20457;-73
2021/08/21 05:28:14;;;;;;;9.00;4.00;;;;;;;14.24;80.83;96795.91;2594450;54;20437;-75
2021/08/21 05:30:44;;;;;;;6.70;3.83;;;;;;;14.30;79.26;96790.13;2595818;36;20902;-75
2021/08/21 05:33:18;;;;;;;5.07;3.43;;;;;;;14.14;80.08;96792.34;2595775;54;20410;-75
2021/08/21 05:35:51;;;;;;;4.60;3.30;;;;;;;14.19;79.78;96792.78;2596291;36;21017;-76
2021/08/21 05:38:21;;;;;;;17.03;4.13;;;;;;;14.23;79.62;96796.88;2595126;54;20910;-76
2021/08/21 05:40:51;;;;;;;11.73;4.83;;;;;;;14.38;79.59;96784.25;2595838;31;20449;-76
2021/08/21 05:43:21;;;;;;;11.13;4.70;;;;;;;14.50;78.66;96796.41;2594873;54;20454;-77
2021/08/21 05:45:51;;;;;;;12.93;5.87;;;;;;;14.39;79.03;96792.03;2595168;36;20776;-77
2021/08/21 05:48:23;;;;;;;7.30;4.10;;;;;;;14.32;79.57;96796.13;2596701;54;20399;-76
2021/08/21 05:50:53;;;;;;;8.97;4.43;;;;;;;14.35;79.85;96795.06;2594659;36;20924;-77
2021/08/21 05:53:23;;;;;;;9.97;4.17;;;;;;;14.46;79.66;96799.44;2595310;54;20938;-75
2021/08/21 05:55:53;;;;;;;8.03;4.60;;;;;;;14.51;80.33;96802.53;2595390;36;21523;-75
2021/08/21 05:58:24;;;;;;;11.10;5.13;;;;;;;14.35;80.57;96800.31;2595365;39;20912;-78
2021/08/21 06:00:57;;;;;;;9.40;5.47;;;;;;;14.27;80.99;96800.94;2597160;31;20429;-76
2021/08/21 06:03:29;;;;;;;20.40;5.87;;;;;;;14.21;81.11;96801.41;2594422;54;20433;-75
2021/08/21 06:05:59;;;;;;;11.40;5.73;;;;;;;13.76;82.70;96797.06;2594698;36;20426;-76
2021/08/21 06:08:29;;;;;;;7.60;4.70;;;;;;;14.19;81.75;96813.84;2594701;39;20791;-75
2021/08/21 06:10:59;;;;;;;7.80;5.10;;;;;;;14.60;80.33;96812.34;2595305;31;21197;-76
2021/08/21 06:13:29;;;;;;;8.00;4.20;;;;;;;14.83;79.47;96821.84;2594636;54;20391;-76
2021/08/21 06:15:59;;;;;;;13.80;4.50;;;;;;;14.85;79.34;96816.44;2596852;36;20418;-76
2021/08/21 06:18:33;;;;;;;17.07;4.20;;;;;;;14.59;80.84;96813.31;2595478;54;20986;-75
2021/08/21 06:21:03;;;;;;;8.47;4.60;;;;;;;14.88;79.49;96813.56;2597070;31;20449;-76
2021/08/21 06:23:33;;;;;;;5.50;4.50;;;;;;;15.01;78.97;96813.38;2596113;39;20736;-75
2021/08/21 06:26:03;;;;;;;8.37;5.07;;;;;;;15.01;79.01;96805.47;2595394;36;20438;-76
2021/08/21 06:28:33;;;;;;;10.70;5.40;;;;;;;14.81;80.66;96813.22;2597267;54;20471;-77
2021/08/21 06:31:03;;;;;;;12.17;4.70;;;;;;;15.56;78.76;96811.38;2595732;36;20451;-76
2021/08/21 06:33:36;;;;;;;5.90;3.87;;;;;;;15.97;77.49;96809.59;2594742;54;20415;-77
2021/08/21 06:36:31;;;;;;;12.20;5.60;;;;;;;16.13;76.80;96803.84;2598340;36;21069;-76
2021/08/21 06:39:01;;;;;;;12.53;4.67;;;;;;;16.08;76.77;96807.84;2595238;54;20411;-77
2021/08/21 06:41:31;;;;;;;9.80;6.27;;;;;;;16.47;75.58;96807.94;2594827;36;20446;-77
2021/08/21 06:44:01;;;;;;;6.00;4.43;;;;;;;16.49;75.99;96808.63;2594659;54;21174;-76
2021/08/21 06:46:30;;;;;;;7.07;4.77;;;;;;;16.83;75.53;96792.38;2594678;36;20769;-76
2021/08/21 06:49:03;;;;;;;7.00;4.70;;;;;;;17.27;74.11;96800.69;2594376;54;20472;-77
2021/08/21 06:51:34;;;;;;;56.50;9.83;;;;;;;17.46;74.36;96797.16;2595455;31;20898;-75
2021/08/21 06:54:04;;;;;;;15.50;6.10;;;;;;;17.72;72.67;96802.66;2595562;54;20406;-76
2021/08/21 06:56:34;;;;;;;11.33;4.63;;;;;;;17.75;71.19;96794.41;2594889;36;20423;-76
2021/08/21 06:59:04;;;;;;;17.50;4.47;;;;;;;17.89;71.53;96806.38;2595967;54;20423;-78
2021/08/21 07:01:35;;;;;;;5.90;4.13;;;;;;;17.96;71.04;96808.31;2596113;36;20422;-75
2021/08/21 07:04:08;;;;;;;10.00;4.60;;;;;;;17.58;72.69;96802.16;2596274;39;20809;-78
2021/08/21 07:06:37;;;;;;;9.30;4.40;;;;;;;17.76;71.39;96804.06;2595023;36;20965;-76
2021/08/21 07:09:07;;;;;;;13.87;4.50;;;;;;;17.78;71.57;96804.75;2595512;39;20869;-78
2021/08/21 07:11:37;;;;;;;12.43;4.37;;;;;;;18.91;67.80;96802.69;2594337;36;20415;-75
2021/08/21 07:14:07;;;;;;;10.13;5.33;;;;;;;19.32;66.42;96803.03;2595070;39;20791;-73
2021/08/21 07:16:37;;;;;;;21.30;4.80;;;;;;;19.97;64.57;96799.94;2595819;36;20454;-74
2021/08/21 07:19:09;;;;;;;9.77;5.40;;;;;;;20.47;62.81;96798.28;2596196;47;20415;-74
2021/08/21 07:21:39;;;;;;;10.47;4.53;;;;;;;20.53;60.67;96797.63;2596519;36;20874;-75
2021/08/21 07:24:09;;;;;;;6.47;3.50;;;;;;;21.04;58.44;96795.72;2596769;54;20966;-74
2021/08/21 07:26:39;;;;;;;6.13;4.03;;;;;;;21.44;56.09;96793.22;2607644;36;20447;-74
2021/08/21 07:29:09;;;;;;;6.00;4.00;;;;;;;21.35;57.55;96796.91;2597578;54;20427;-75
2021/08/21 07:31:39;;;;;;;7.80;3.97;;;;;;;22.33;54.60;96796.66;2597225;36;20957;-75
2021/08/21 07:34:11;;;;;;;5.77;3.97;;;;;;;22.49;54.09;96791.22;2597704;54;20438;-75
2021/08/21 07:36:42;;;;;;;14.13;3.17;;;;;;;21.24;56.76;96795.38;2597639;36;20411;-75
2021/08/21 07:39:11;;;;;;;10.50;4.20;;;;;;;20.74;58.61;96784.75;2597835;54;20928;-75
2021/08/21 07:41:41;;;;;;;6.50;3.90;;;;;;;21.76;55.45;96795.00;2596067;36;20451;-73
2021/08/21 07:44:12;;;;;;;8.37;3.73;;;;;;;22.05;54.57;96804.22;2596491;39;21108;-74
2021/08/21 07:46:42;;;;;;;6.80;4.20;;;;;;;22.17;53.83;96786.88;2596556;36;20442;-73
2021/08/21 07:49:14;;;;;;;4.43;3.60;;;;;;;22.78;53.03;96794.22;2595678;54;20442;-74
2021/08/21 07:51:44;;;;;;;8.50;4.00;;;;;;;22.19;54.44;96789.34;2596908;31;20962;-74
2021/08/21 07:54:16;;;;;;;6.00;3.13;;;;;;;22.16;54.45;96795.03;2597319;54;20918;-73
2021/08/21 07:56:46;;;;;;;5.97;4.27;;;;;;;22.97;52.35;96793.72;2596655;36;20730;-74
2021/08/21 07:59:16;;;;;;;4.70;2.47;;;;;;;22.94;52.28;96794.09;2594845;47;20993;-75
2021/08/21 08:01:46;;;;;;;9.20;2.80;;;;;;;22.37;53.91;96799.81;2595167;36;20457;-75
2021/08/21 08:04:18;;;;;;;4.60;3.63;;;;;;;22.44;54.26;96812.28;2595212;39;20919;-73
2021/08/21 08:06:48;;;;;;;5.77;3.47;;;;;;;22.40;54.22;96816.25;2595456;36;20997;-74
2021/08/21 08:09:18;;;;;;;9.43;3.90;;;;;;;21.94;54.77;96808.09;2595497;54;20970;-75
2021/08/21 08:11:50;;;;;;;5.17;3.57;;;;;;;21.44;55.47;96810.03;2596889;36;20894;-74
2021/08/21 08:14:20;;;;;;;6.00;3.70;;;;;;;21.21;56.01;96811.69;2597232;54;20402;-73
2021/08/21 08:16:50;;;;;;;10.50;3.87;;;;;;;21.26;56.95;96810.19;2595973;36;20796;-73
2021/08/21 08:19:23;;;;;;;9.73;3.53;;;;;;;22.09;55.77;96814.38;2594998;54;20410;-73
2021/08/21 08:21:53;;;;;;;5.57;3.83;;;;;;;22.55;54.18;96805.69;2595336;36;20792;-73
2021/08/21 08:24:24;;;;;;;5.23;3.33;;;;;;;22.31;54.02;96812.00;2595410;54;21007;-73
2021/08/21 08:26:54;;;;;;;6.10;3.63;;;;;;;22.02;56.04;96807.25;2595254;31;20827;-73
2021/08/21 08:29:24;;;;;;;8.03;3.93;;;;;;;22.39;54.48;96813.78;2598862;39;21093;-73
2021/08/21 08:31:54;;;;;;;5.67;3.90;;;;;;;21.83;55.75;96811.97;2595587;36;20453;-74
2021/08/21 08:34:30;;;;;;;5.90;4.10;;;;;;;22.28;55.81;96805.16;2595790;54;20905;-73
2021/08/21 08:37:00;;;;;;;4.93;3.50;;;;;;;22.84;53.82;96804.19;2595546;36;20453;-73
2021/08/21 08:39:30;;;;;;;4.43;3.67;;;;;;;23.01;53.24;96800.41;2595571;54;20411;-73
2021/08/21 08:42:01;;;;;;;7.70;3.63;;;;;;;23.69;52.74;96803.13;2595822;36;20418;-74
2021/08/21 08:44:34;;;;;;;8.33;4.50;;;;;;;23.43;52.80;96799.03;2595854;54;20407;-74
2021/08/21 08:47:04;;;;;;;5.10;3.40;;;;;;;22.89;54.74;96809.81;2595128;36;20701;-73
2021/08/21 08:49:38;;;;;;;6.83;3.63;;;;;;;23.27;53.95;96804.56;2595347;54;21266;-74
2021/08/21 08:52:09;;;;;;;6.27;3.63;;;;;;;23.07;54.00;96804.19;2595531;36;20836;-73
2021/08/21 08:54:39;;;;;;;7.10;5.93;;;;;;;23.48;54.05;96796.66;2595164;54;21219;-74
2021/08/21 08:57:09;;;;;;;48.37;28.23;;;;;;;24.61;51.06;96796.56;2596026;36;20742;-73
2021/08/21 08:59:38;;;;;;;6.70;3.97;;;;;;;23.43;54.02;96785.69;2595411;47;20422;-74
2021/08/21 09:02:08;;;;;;;6.50;4.00;;;;;;;23.02;55.68;96804.75;2594841;31;20739;-73
2021/08/21 09:04:42;;;;;;;4.93;3.13;;;;;;;23.77;53.96;96800.38;2595789;39;20979;-74
2021/08/21 09:07:14;;;;;;;6.70;4.13;;;;;;;24.20;51.82;96800.56;2595399;36;20948;-73
2021/08/21 09:09:46;;;;;;;8.63;3.80;;;;;;;23.58;54.22;96803.56;2595788;39;20770;-73
2021/08/21 09:12:26;;;;;;;7.60;5.17;;;;;;;23.83;52.50;96805.00;2595374;36;20458;-74
2021/08/21 09:14:56;;;;;;;11.07;4.47;;;;;;;23.71;52.40;96801.09;2596083;36;20419;-74
2021/08/21 09:17:26;;;;;;;9.77;4.57;;;;;;;24.22;51.23;96801.22;2595231;54;21228;-73
2021/08/21 09:20:06;;;;;;;6.17;4.13;;;;;;;24.47;51.52;96798.22;2595306;36;21066;-73
2021/08/21 09:22:36;;;;;;;15.87;4.03;;;;;;;24.46;52.54;96794.72;2594640;39;20756;-73
2021/08/21 09:25:07;;;;;;;8.17;4.53;;;;;;;24.37;52.68;96803.88;2594270;36;20731;-74
2021/08/21 09:27:39;;;;;;;6.37;4.47;;;;;;;24.80;50.86;96797.81;2594406;54;21005;-75
2021/08/21 09:30:13;;;;;;;8.23;5.07;;;;;;;25.15;49.75;96801.44;2599327;36;20927;-74
2021/08/21 09:32:44;;;;;;;14.67;4.13;;;;;;;25.10;49.61;96795.00;2595056;54;20410;-73
2021/08/21 09:35:16;;;;;;;8.10;4.40;;;;;;;25.03;50.28;96795.75;2594208;36;20914;-73
2021/08/21 09:37:52;;;;;;;7.00;4.70;;;;;;;25.23;50.62;96801.31;2594821;54;20419;-74
2021/08/21 09:40:32;;;;;;;8.90;4.47;;;;;;;25.59;48.88;96781.59;2595576;36;20426;-74
2021/08/21 09:43:03;;;;;;;5.10;3.70;;;;;;;25.28;49.69;96787.34;2595400;54;20623;-73
2021/08/21 09:45:35;;;;;;;5.73;3.83;;;;;;;25.62;48.99;96780.38;2595996;36;20446;-74
2021/08/21 09:48:08;;;;;;;5.93;4.20;;;;;;;25.11;50.23;96785.91;2596452;54;20427;-73
2021/08/21 09:50:42;;;;;;;23.90;15.63;;;;;;;25.27;50.46;96774.97;2595122;36;20473;-74
2021/08/21 09:53:14;;;;;;;7.03;4.47;;;;;;;25.85;48.09;96778.28;2596061;54;20410;-74
2021/08/21 09:55:43;;;;;;;6.87;4.20;;;;;;;25.48;48.67;96779.44;2595546;36;21227;-74
2021/08/21 09:58:17;;;;;;;9.60;4.93;;;;;;;26.67;47.04;96777.63;2596998;54;20422;-74
2021/08/21 10:00:47;;;;;;;6.93;4.60;;;;;;;26.37;47.40;96781.41;2595529;31;20411;-74
2021/08/21 10:03:18;;;;;;;9.20;4.90;;;;;;;26.32;46.93;96777.69;2595622;39;20621;-74
2021/08/21 10:05:50;;;;;;;6.87;3.97;;;;;;;26.81;46.35;96773.91;2595041;36;20450;-74
2021/08/21 10:08:25;;;;;;;7.23;4.57;;;;;;;25.40;48.76;96774.22;2595748;54;20411;-74
2021/08/21 10:10:58;;;;;;;7.03;4.43;;;;;;;25.99;48.69;96773.84;2595844;36;20841;-74
2021/08/21 10:13:30;;;;;;;6.60;3.90;;;;;;;26.44;47.74;96778.75;2595218;54;20426;-74
2021/08/21 10:16:03;;;;;;;6.50;4.53;;;;;;;25.55;48.65;96763.41;2594979;36;20438;-74
2021/08/21 10:18:33;;;;;;;8.47;4.20;;;;;;;26.59;46.15;96768.72;2595149;39;20877;-75
2021/08/21 10:21:06;;;;;;;6.80;3.87;;;;;;;26.76;45.77;96761.13;2596995;36;21077;-75
2021/08/21 10:23:36;;;;;;;7.17;4.50;;;;;;;27.19;44.41;96762.59;2595445;54;20418;-75
2021/08/21 10:26:11;;;;;;;4.97;3.40;;;;;;;27.70;43.85;96759.28;2594305;36;20760;-74
2021/08/21 10:28:43;;;;;;;18.23;5.13;;;;;;;26.46;46.61;96768.63;2595637;54;20438;-74
2021/08/21 10:31:40;;;;;;;7.23;4.40;;;;;;;27.51;44.76;96768.19;2596198;36;20993;-74
2021/08/21 10:34:12;;;;;;;5.47;4.43;;;;;;;27.96;42.90;96763.78;2596392;54;20922;-74
2021/08/21 10:36:51;;;;;;;7.03;4.37;;;;;;;27.64;42.74;96760.13;2596398;31;20807;-74
2021/08/21 10:39:28;;;;;;;13.93;4.63;;;;;;;27.97;42.49;96759.22;2595986;47;20419;-74
2021/08/21 10:41:59;;;;;;;6.40;4.33;;;;;;;27.69;43.18;96759.47;2595504;31;20445;-74
2021/08/21 10:44:47;;;;;;;6.10;4.93;;;;;;;27.85;43.53;96755.50;2596454;54;20419;-73
2021/08/21 10:47:41;;;;;;;14.10;5.17;;;;;;;27.69;43.85;96757.59;2596259;36;20743;-74
2021/08/21 10:50:36;;;;;;;8.33;4.37;;;;;;;26.60;45.45;96758.81;2596856;31;20800;-74
2021/08/21 10:53:22;;;;;;;8.60;5.80;;;;;;;28.02;42.99;96753.22;2598811;39;20831;-74
2021/08/21 10:55:53;;;;;;;7.13;5.30;;;;;;;27.61;42.87;96755.97;2597309;36;20965;-74
2021/08/21 10:58:24;;;;;;;8.50;4.27;;;;;;;27.76;43.64;96755.75;2599867;54;20443;-74
2021/08/21 11:01:06;;;;;;;6.93;4.30;;;;;;;26.27;46.45;96756.00;2597381;36;20449;-73
2021/08/21 11:03:51;;;;;;;6.67;4.60;;;;;;;27.68;43.07;96755.97;2595430;39;20726;-73
2021/08/21 11:06:41;;;;;;;7.40;3.93;;;;;;;28.17;41.88;96751.09;2597301;36;20922;-73
2021/08/21 11:09:26;;;;;;;9.87;4.13;;;;;;;29.72;40.08;96745.31;2599134;54;20391;-75
2021/08/21 11:11:56;;;;;;;5.10;3.83;;;;;;;29.63;38.82;96737.69;2596207;36;20889;-75
2021/08/21 11:14:34;;;;;;;11.90;4.80;;;;;;;27.46;43.35;96747.28;2598153;54;20537;-75
2021/08/21 11:17:11;;;;;;;7.20;4.73;;;;;;;28.55;42.06;96745.75;2597359;36;21084;-74
2021/08/21 11:19:47;;;;;;;18.13;11.70;;;;;;;28.60;40.41;96750.50;2598710;54;21474;-73
2021/08/21 11:22:30;;;;;;;8.53;5.90;;;;;;;29.19;38.37;96748.47;2595518;36;21274;-74
2021/08/21 11:25:14;;;;;;;11.30;5.17;;;;;;;29.85;37.43;96732.72;2594885;36;20371;-73
2021/08/21 11:27:46;;;;;;;5.70;4.47;;;;;;;29.96;38.48;96738.19;2600313;39;20907;-74
2021/08/21 11:30:29;;;;;;;4.63;4.07;;;;;;;29.27;39.51;96742.78;2594320;36;20436;-74
2021/08/21 11:33:16;;;;;;;8.20;4.30;;;;;;;30.12;37.32;96746.72;2598471;54;20414;-74
2021/08/21 11:35:49;;;;;;;5.40;4.17;;;;;;;28.79;39.60;96736.09;2598066;36;20500;-74
2021/08/21 11:38:20;;;;;;;6.73;3.73;;;;;;;31.16;35.24;96741.16;2596888;54;20891;-75
2021/08/21 11:40:54;;;;;;;10.33;7.93;;;;;;;31.67;33.47;96734.25;2596623;36;20410;-74
2021/08/21 11:43:26;;;;;;;5.20;3.73;;;;;;;30.00;36.45;96732.34;2597934;39;20798;-74
2021/08/21 11:45:57;;;;;;;6.00;3.70;;;;;;;29.85;37.41;96727.31;2596782;36;20807;-75
2021/08/21 11:48:32;;;;;;;4.83;4.20;;;;;;;28.69;39.15;96735.72;2597366;54;21152;-74
2021/08/21 11:51:03;;;;;;;5.33;3.50;;;;;;;29.41;38.78;96732.72;2598482;36;20894;-75
2021/08/21 11:53:35;;;;;;;4.80;3.87;;;;;;;30.62;35.32;96732.19;2597195;47;20467;-74
2021/08/21 11:56:08;;;;;;;5.93;3.87;;;;;;;27.80;40.38;96731.94;2596278;31;20911;-74
2021/08/21 11:58:43;;;;;;;5.87;3.50;;;;;;;28.11;41.44;96733.94;2596591;54;20415;-74